sensor_id;sensor_type;location;lat;lon;timestamp;temperature;humidity
35541;DHT22;21650;48.840;9.162;2023-08-20T00:00:15;23.50;99.90
35541;DHT22;21650;48.840;9.162;2023-08-20T00:02:42;23.40;99.90
35541;DHT22;21650;48.840;9.162;2023-08-20T00:05:08;23.30;99.90
35541;DHT22;21650;48.840;9.162;2023-08-20T00:07:35;23.40;99.90
35541;DHT22;21650;48.840;9.162;2023-08-20T00:10:01;23.40;99.90
35541;DHT22;21650;48.840;9.162;2023-08-20T00:12:27;23.40;99.90
35541;DHT22;21650;48.840;9.162;2023-08-20T00:14:56;23.40;99.90
35541;DHT22;21650;48.840;9.162;2023-08-20T00:17:24;23.40;99.90
35541;DHT22;21650;48.840;9.162;2023-08-20T00:19:53;23.30;99.90
35541;DHT22;21650;48.840;9.162;2023-08-20T00:22:20;23.20;99.90
35541;DHT22;21650;48.840;9.162;2023-08-20T00:24:46;23.20;99.90
35541;DHT22;21650;48.840;9.162;2023-08-20T00:27:12;23.20;99.90
35541;DHT22;21650;48.840;9.162;2023-08-20T00:29:38;23.20;99.90
35541;DHT22;21650;48.840;9.162;2023-08-20T00:32:03;23.10;99.90
35541;DHT22;21650;48.840;9.162;2023-08-20T00:34:29;23.20;99.90
35541;DHT22;21650;48.840;9.162;2023-08-20T00:36:54;23.30;99.90
35541;DHT22;21650;48.840;9.162;2023-08-20T00:39:20;23.30;99.90
35541;DHT22;21650;48.840;9.162;2023-08-20T00:41:45;23.40;99.90
35541;DHT22;21650;48.840;9.162;2023-08-20T00:44:11;23.30;99.90
35541;DHT22;21650;48.840;9.162;2023-08-20T00:46:36;23.30;99.90
35541;DHT22;21650;48.840;9.162;2023-08-20T00:49:02;23.30;99.90
35541;DHT22;21650;48.840;9.162;2023-08-20T00:51:28;23.40;99.90
35541;DHT22;21650;48.840;9.162;2023-08-20T00:53:54;23.40;99.90
35541;DHT22;21650;48.840;9.162;2023-08-20T00:56:20;23.40;99.90
35541;DHT22;21650;48.840;9.162;2023-08-20T00:58:46;23.40;99.90
35541;DHT22;21650;48.840;9.162;2023-08-20T01:01:12;23.40;99.90
35541;DHT22;21650;48.840;9.162;2023-08-20T01:03:37;23.40;99.90
35541;DHT22;21650;48.840;9.162;2023-08-20T01:06:15;23.30;99.90
35541;DHT22;21650;48.840;9.162;2023-08-20T01:08:47;23.30;99.90
35541;DHT22;21650;48.840;9.162;2023-08-20T01:11:18;23.20;99.90
35541;DHT22;21650;48.840;9.162;2023-08-20T01:13:46;23.10;99.90
35541;DHT22;21650;48.840;9.162;2023-08-20T01:16:11;23.00;99.90
35541;DHT22;21650;48.840;9.162;2023-08-20T01:18:37;23.00;99.90
35541;DHT22;21650;48.840;9.162;2023-08-20T01:21:06;23.10;99.90
35541;DHT22;21650;48.840;9.162;2023-08-20T01:24:01;23.10;99.90
35541;DHT22;21650;48.840;9.162;2023-08-20T01:26:58;23.10;99.90
35541;DHT22;21650;48.840;9.162;2023-08-20T01:29:26;23.00;99.90
35541;DHT22;21650;48.840;9.162;2023-08-20T01:31:53;22.90;99.90
35541;DHT22;21650;48.840;9.162;2023-08-20T01:34:20;23.00;99.90
35541;DHT22;21650;48.840;9.162;2023-08-20T01:36:46;23.10;99.90
35541;DHT22;21650;48.840;9.162;2023-08-20T01:39:11;23.10;99.90
35541;DHT22;21650;48.840;9.162;2023-08-20T01:41:38;23.10;99.90
35541;DHT22;21650;48.840;9.162;2023-08-20T01:44:03;23.10;99.90
35541;DHT22;21650;48.840;9.162;2023-08-20T01:46:29;23.10;99.90
35541;DHT22;21650;48.840;9.162;2023-08-20T01:48:54;23.10;99.90
35541;DHT22;21650;48.840;9.162;2023-08-20T01:51:20;23.10;99.90
35541;DHT22;21650;48.840;9.162;2023-08-20T01:53:46;23.00;99.90
35541;DHT22;21650;48.840;9.162;2023-08-20T01:56:12;23.00;99.90
35541;DHT22;21650;48.840;9.162;2023-08-20T01:58:38;23.00;99.90
35541;DHT22;21650;48.840;9.162;2023-08-20T02:01:04;22.90;99.90
35541;DHT22;21650;48.840;9.162;2023-08-20T02:03:29;22.70;99.90
35541;DHT22;21650;48.840;9.162;2023-08-20T02:05:55;22.90;99.90
35541;DHT22;21650;48.840;9.162;2023-08-20T02:08:21;22.90;99.90
35541;DHT22;21650;48.840;9.162;2023-08-20T02:10:46;22.90;99.90
35541;DHT22;21650;48.840;9.162;2023-08-20T02:13:12;22.80;99.90
35541;DHT22;21650;48.840;9.162;2023-08-20T02:15:37;22.90;99.90
35541;DHT22;21650;48.840;9.162;2023-08-20T02:18:03;22.90;99.90
35541;DHT22;21650;48.840;9.162;2023-08-20T02:20:29;22.90;99.90
35541;DHT22;21650;48.840;9.162;2023-08-20T02:22:54;22.90;99.90
35541;DHT22;21650;48.840;9.162;2023-08-20T02:25:20;22.80;99.90
35541;DHT22;21650;48.840;9.162;2023-08-20T02:27:46;22.80;99.90
35541;DHT22;21650;48.840;9.162;2023-08-20T02:30:12;22.80;99.90
35541;DHT22;21650;48.840;9.162;2023-08-20T02:32:39;22.80;99.90
35541;DHT22;21650;48.840;9.162;2023-08-20T02:35:05;22.70;99.90
35541;DHT22;21650;48.840;9.162;2023-08-20T02:37:32;22.80;99.90
35541;DHT22;21650;48.840;9.162;2023-08-20T02:39:57;22.70;99.90
35541;DHT22;21650;48.840;9.162;2023-08-20T02:42:23;22.70;99.90
35541;DHT22;21650;48.840;9.162;2023-08-20T02:44:48;22.70;99.90
35541;DHT22;21650;48.840;9.162;2023-08-20T02:47:14;22.70;99.90
35541;DHT22;21650;48.840;9.162;2023-08-20T02:49:39;22.70;99.90
35541;DHT22;21650;48.840;9.162;2023-08-20T02:52:05;22.70;99.90
35541;DHT22;21650;48.840;9.162;2023-08-20T02:54:30;22.60;99.90
35541;DHT22;21650;48.840;9.162;2023-08-20T02:56:58;22.60;99.90
35541;DHT22;21650;48.840;9.162;2023-08-20T02:59:23;22.60;99.90
35541;DHT22;21650;48.840;9.162;2023-08-20T03:01:49;22.60;99.90
35541;DHT22;21650;48.840;9.162;2023-08-20T03:04:14;22.50;99.90
35541;DHT22;21650;48.840;9.162;2023-08-20T03:06:40;22.50;99.90
35541;DHT22;21650;48.840;9.162;2023-08-20T03:09:05;22.50;99.90
35541;DHT22;21650;48.840;9.162;2023-08-20T03:11:31;22.40;99.90
35541;DHT22;21650;48.840;9.162;2023-08-20T03:13:57;22.40;99.90
35541;DHT22;21650;48.840;9.162;2023-08-20T03:16:22;22.40;99.90
35541;DHT22;21650;48.840;9.162;2023-08-20T03:18:48;22.40;99.90
35541;DHT22;21650;48.840;9.162;2023-08-20T03:21:13;22.40;99.90
35541;DHT22;21650;48.840;9.162;2023-08-20T03:23:39;22.30;99.90
35541;DHT22;21650;48.840;9.162;2023-08-20T03:26:04;22.30;99.90
35541;DHT22;21650;48.840;9.162;2023-08-20T03:28:30;22.20;99.90
35541;DHT22;21650;48.840;9.162;2023-08-20T03:30:59;22.20;99.90
35541;DHT22;21650;48.840;9.162;2023-08-20T03:33:26;22.30;99.90
35541;DHT22;21650;48.840;9.162;2023-08-20T03:35:51;22.30;99.90
35541;DHT22;21650;48.840;9.162;2023-08-20T03:38:17;22.30;99.90
35541;DHT22;21650;48.840;9.162;2023-08-20T03:40:42;22.20;99.90
35541;DHT22;21650;48.840;9.162;2023-08-20T03:43:08;22.20;99.90
35541;DHT22;21650;48.840;9.162;2023-08-20T03:45:33;22.20;99.90
35541;DHT22;21650;48.840;9.162;2023-08-20T03:47:59;22.20;99.90
35541;DHT22;21650;48.840;9.162;2023-08-20T03:50:25;22.20;99.90
35541;DHT22;21650;48.840;9.162;2023-08-20T03:52:50;22.10;99.90
35541;DHT22;21650;48.840;9.162;2023-08-20T03:55:16;22.20;99.90
35541;DHT22;21650;48.840;9.162;2023-08-20T03:57:41;22.10;99.90
35541;DHT22;21650;48.840;9.162;2023-08-20T04:00:08;22.10;99.90
35541;DHT22;21650;48.840;9.162;2023-08-20T04:02:34;22.10;99.90
35541;DHT22;21650;48.840;9.162;2023-08-20T04:05:00;22.10;99.90
35541;DHT22;21650;48.840;9.162;2023-08-20T04:07:25;22.00;99.90
35541;DHT22;21650;48.840;9.162;2023-08-20T04:09:51;22.00;99.90
35541;DHT22;21650;48.840;9.162;2023-08-20T04:12:16;22.10;99.90
35541;DHT22;21650;48.840;9.162;2023-08-20T04:14:42;22.00;99.90
35541;DHT22;21650;48.840;9.162;2023-08-20T04:17:07;22.00;99.90
35541;DHT22;21650;48.840;9.162;2023-08-20T04:19:33;22.00;99.90
35541;DHT22;21650;48.840;9.162;2023-08-20T04:21:58;22.00;99.90
35541;DHT22;21650;48.840;9.162;2023-08-20T04:24:24;21.90;99.90
35541;DHT22;21650;48.840;9.162;2023-08-20T04:26:49;22.00;99.90
35541;DHT22;21650;48.840;9.162;2023-08-20T04:29:15;22.00;99.90
35541;DHT22;21650;48.840;9.162;2023-08-20T04:31:40;22.00;99.90
35541;DHT22;21650;48.840;9.162;2023-08-20T04:34:06;22.00;99.90
35541;DHT22;21650;48.840;9.162;2023-08-20T04:36:31;22.00;99.90
35541;DHT22;21650;48.840;9.162;2023-08-20T04:38:57;22.00;99.90
35541;DHT22;21650;48.840;9.162;2023-08-20T04:41:22;22.00;99.90
35541;DHT22;21650;48.840;9.162;2023-08-20T04:43:48;22.00;99.90
35541;DHT22;21650;48.840;9.162;2023-08-20T04:46:13;21.90;99.90
35541;DHT22;21650;48.840;9.162;2023-08-20T04:48:40;21.90;99.90
35541;DHT22;21650;48.840;9.162;2023-08-20T04:51:05;22.00;99.90
35541;DHT22;21650;48.840;9.162;2023-08-20T04:53:32;22.00;99.90
35541;DHT22;21650;48.840;9.162;2023-08-20T04:55:58;21.90;99.90
35541;DHT22;21650;48.840;9.162;2023-08-20T04:58:24;22.00;99.90
35541;DHT22;21650;48.840;9.162;2023-08-20T05:00:49;22.00;99.90
35541;DHT22;21650;48.840;9.162;2023-08-20T05:03:15;21.90;99.90
35541;DHT22;21650;48.840;9.162;2023-08-20T05:05:40;21.90;99.90
35541;DHT22;21650;48.840;9.162;2023-08-20T05:08:06;21.90;99.90
35541;DHT22;21650;48.840;9.162;2023-08-20T05:10:31;22.00;99.90
35541;DHT22;21650;48.840;9.162;2023-08-20T05:12:57;21.90;99.90
35541;DHT22;21650;48.840;9.162;2023-08-20T05:15:22;22.00;99.90
35541;DHT22;21650;48.840;9.162;2023-08-20T05:17:48;22.00;99.90
35541;DHT22;21650;48.840;9.162;2023-08-20T05:20:14;22.00;99.90
35541;DHT22;21650;48.840;9.162;2023-08-20T05:22:41;22.00;99.90
35541;DHT22;21650;48.840;9.162;2023-08-20T05:25:06;22.00;99.90
35541;DHT22;21650;48.840;9.162;2023-08-20T05:27:32;22.00;99.90
35541;DHT22;21650;48.840;9.162;2023-08-20T05:29:57;22.10;99.90
35541;DHT22;21650;48.840;9.162;2023-08-20T05:32:23;22.00;99.90
35541;DHT22;21650;48.840;9.162;2023-08-20T05:34:48;21.90;99.90
35541;DHT22;21650;48.840;9.162;2023-08-20T05:37:14;22.00;99.90
35541;DHT22;21650;48.840;9.162;2023-08-20T05:39:43;22.10;99.90
35541;DHT22;21650;48.840;9.162;2023-08-20T05:42:09;22.20;99.90
35541;DHT22;21650;48.840;9.162;2023-08-20T05:44:35;22.20;99.90
35541;DHT22;21650;48.840;9.162;2023-08-20T05:47:01;22.30;99.90
35541;DHT22;21650;48.840;9.162;2023-08-20T05:49:27;22.30;99.90
35541;DHT22;21650;48.840;9.162;2023-08-20T05:51:53;22.30;99.90
35541;DHT22;21650;48.840;9.162;2023-08-20T05:54:18;22.40;99.90
35541;DHT22;21650;48.840;9.162;2023-08-20T05:56:44;22.40;99.90
35541;DHT22;21650;48.840;9.162;2023-08-20T05:59:10;22.40;99.90
35541;DHT22;21650;48.840;9.162;2023-08-20T06:01:35;22.50;99.90
35541;DHT22;21650;48.840;9.162;2023-08-20T06:04:01;22.60;99.90
35541;DHT22;21650;48.840;9.162;2023-08-20T06:06:27;22.70;99.90
35541;DHT22;21650;48.840;9.162;2023-08-20T06:08:52;22.80;99.90
35541;DHT22;21650;48.840;9.162;2023-08-20T06:11:19;22.90;99.90
35541;DHT22;21650;48.840;9.162;2023-08-20T06:13:44;23.00;99.90
35541;DHT22;21650;48.840;9.162;2023-08-20T06:16:10;23.00;99.90
35541;DHT22;21650;48.840;9.162;2023-08-20T06:18:35;23.10;99.90
35541;DHT22;21650;48.840;9.162;2023-08-20T06:21:02;23.20;99.90
35541;DHT22;21650;48.840;9.162;2023-08-20T06:23:28;23.20;99.90
35541;DHT22;21650;48.840;9.162;2023-08-20T06:25:54;23.30;99.90
35541;DHT22;21650;48.840;9.162;2023-08-20T06:28:19;23.20;99.90
35541;DHT22;21650;48.840;9.162;2023-08-20T06:30:45;23.10;99.90
35541;DHT22;21650;48.840;9.162;2023-08-20T06:33:11;23.30;99.90
35541;DHT22;21650;48.840;9.162;2023-08-20T06:35:37;23.40;99.90
35541;DHT22;21650;48.840;9.162;2023-08-20T06:38:03;23.50;99.90
35541;DHT22;21650;48.840;9.162;2023-08-20T06:40:28;23.70;99.90
35541;DHT22;21650;48.840;9.162;2023-08-20T06:42:54;23.80;99.90
35541;DHT22;21650;48.840;9.162;2023-08-20T06:45:19;24.00;99.90
35541;DHT22;21650;48.840;9.162;2023-08-20T06:47:45;24.00;99.90
35541;DHT22;21650;48.840;9.162;2023-08-20T06:50:10;24.00;99.90
35541;DHT22;21650;48.840;9.162;2023-08-20T06:52:36;24.10;99.90
35541;DHT22;21650;48.840;9.162;2023-08-20T06:55:01;24.30;99.90
35541;DHT22;21650;48.840;9.162;2023-08-20T06:57:27;24.50;99.90
35541;DHT22;21650;48.840;9.162;2023-08-20T06:59:52;24.40;99.90
35541;DHT22;21650;48.840;9.162;2023-08-20T07:02:18;24.50;99.90
35541;DHT22;21650;48.840;9.162;2023-08-20T07:04:43;24.50;99.90
35541;DHT22;21650;48.840;9.162;2023-08-20T07:07:09;24.70;99.90
35541;DHT22;21650;48.840;9.162;2023-08-20T07:09:35;24.70;99.90
35541;DHT22;21650;48.840;9.162;2023-08-20T07:12:01;24.70;99.90
35541;DHT22;21650;48.840;9.162;2023-08-20T07:14:27;24.70;99.90
35541;DHT22;21650;48.840;9.162;2023-08-20T07:16:52;24.60;99.90
35541;DHT22;21650;48.840;9.162;2023-08-20T07:19:18;24.50;99.90
35541;DHT22;21650;48.840;9.162;2023-08-20T07:21:43;24.50;99.90
35541;DHT22;21650;48.840;9.162;2023-08-20T07:24:09;24.60;99.90
35541;DHT22;21650;48.840;9.162;2023-08-20T07:26:34;24.70;99.90
35541;DHT22;21650;48.840;9.162;2023-08-20T07:29:00;24.80;99.90
35541;DHT22;21650;48.840;9.162;2023-08-20T07:31:30;24.80;99.90
35541;DHT22;21650;48.840;9.162;2023-08-20T07:33:57;24.70;99.90
35541;DHT22;21650;48.840;9.162;2023-08-20T07:36:24;24.70;99.90
35541;DHT22;21650;48.840;9.162;2023-08-20T07:38:53;24.70;99.90
35541;DHT22;21650;48.840;9.162;2023-08-20T07:41:19;24.70;99.90
35541;DHT22;21650;48.840;9.162;2023-08-20T07:43:45;24.90;99.90
35541;DHT22;21650;48.840;9.162;2023-08-20T07:46:11;25.10;99.90
35541;DHT22;21650;48.840;9.162;2023-08-20T07:48:37;25.10;99.90
35541;DHT22;21650;48.840;9.162;2023-08-20T07:51:03;25.10;99.90
35541;DHT22;21650;48.840;9.162;2023-08-20T07:53:29;25.00;99.90
35541;DHT22;21650;48.840;9.162;2023-08-20T07:55:55;25.10;99.90
35541;DHT22;21650;48.840;9.162;2023-08-20T07:58:21;25.10;99.90
35541;DHT22;21650;48.840;9.162;2023-08-20T08:00:46;24.90;99.90
35541;DHT22;21650;48.840;9.162;2023-08-20T08:03:12;24.90;99.90
35541;DHT22;21650;48.840;9.162;2023-08-20T08:05:40;25.00;99.90
35541;DHT22;21650;48.840;9.162;2023-08-20T08:08:06;25.00;99.90
35541;DHT22;21650;48.840;9.162;2023-08-20T08:10:31;25.10;99.90
35541;DHT22;21650;48.840;9.162;2023-08-20T08:12:57;25.00;99.90
35541;DHT22;21650;48.840;9.162;2023-08-20T08:15:22;25.20;99.90
35541;DHT22;21650;48.840;9.162;2023-08-20T08:17:48;25.40;99.90
35541;DHT22;21650;48.840;9.162;2023-08-20T08:20:13;25.40;99.90
35541;DHT22;21650;48.840;9.162;2023-08-20T08:22:39;25.30;99.90
35541;DHT22;21650;48.840;9.162;2023-08-20T08:25:05;25.40;99.90
35541;DHT22;21650;48.840;9.162;2023-08-20T08:27:31;25.40;99.90
35541;DHT22;21650;48.840;9.162;2023-08-20T08:29:57;25.50;99.90
35541;DHT22;21650;48.840;9.162;2023-08-20T08:32:23;25.60;99.90
35541;DHT22;21650;48.840;9.162;2023-08-20T08:34:48;25.60;99.90
35541;DHT22;21650;48.840;9.162;2023-08-20T08:37:14;25.60;99.90
35541;DHT22;21650;48.840;9.162;2023-08-20T08:39:41;25.80;99.90
35541;DHT22;21650;48.840;9.162;2023-08-20T08:42:06;26.00;99.90
35541;DHT22;21650;48.840;9.162;2023-08-20T08:44:33;26.50;99.90
35541;DHT22;21650;48.840;9.162;2023-08-20T08:46:59;26.80;99.90
35541;DHT22;21650;48.840;9.162;2023-08-20T08:49:25;27.20;99.90
35541;DHT22;21650;48.840;9.162;2023-08-20T08:51:57;27.60;99.90
35541;DHT22;21650;48.840;9.162;2023-08-20T08:54:23;28.10;99.90
35541;DHT22;21650;48.840;9.162;2023-08-20T08:56:49;28.10;99.90
35541;DHT22;21650;48.840;9.162;2023-08-20T08:59:15;27.70;99.90
35541;DHT22;21650;48.840;9.162;2023-08-20T09:01:41;27.90;99.90
35541;DHT22;21650;48.840;9.162;2023-08-20T09:04:07;28.00;99.90
35541;DHT22;21650;48.840;9.162;2023-08-20T09:06:49;28.20;99.90
35541;DHT22;21650;48.840;9.162;2023-08-20T09:09:16;28.30;99.90
35541;DHT22;21650;48.840;9.162;2023-08-20T09:11:42;28.70;99.90
35541;DHT22;21650;48.840;9.162;2023-08-20T09:14:08;28.70;99.90
35541;DHT22;21650;48.840;9.162;2023-08-20T09:16:45;29.20;99.90
35541;DHT22;21650;48.840;9.162;2023-08-20T09:19:10;29.30;99.90
35541;DHT22;21650;48.840;9.162;2023-08-20T09:21:36;29.20;99.90
35541;DHT22;21650;48.840;9.162;2023-08-20T09:24:02;29.30;99.90
35541;DHT22;21650;48.840;9.162;2023-08-20T09:26:27;29.20;99.90
35541;DHT22;21650;48.840;9.162;2023-08-20T09:28:55;28.90;99.90
35541;DHT22;21650;48.840;9.162;2023-08-20T09:31:39;29.10;99.90
35541;DHT22;21650;48.840;9.162;2023-08-20T09:34:05;29.50;99.90
35541;DHT22;21650;48.840;9.162;2023-08-20T09:36:32;29.80;99.90
35541;DHT22;21650;48.840;9.162;2023-08-20T09:38:58;29.80;99.90
35541;DHT22;21650;48.840;9.162;2023-08-20T09:41:24;29.90;99.90
35541;DHT22;21650;48.840;9.162;2023-08-20T09:43:55;29.90;99.90
35541;DHT22;21650;48.840;9.162;2023-08-20T09:46:24;30.10;99.90
35541;DHT22;21650;48.840;9.162;2023-08-20T09:48:51;30.20;99.90
35541;DHT22;21650;48.840;9.162;2023-08-20T09:51:21;29.90;99.90
35541;DHT22;21650;48.840;9.162;2023-08-20T09:56:42;30.50;99.90
35541;DHT22;21650;48.840;9.162;2023-08-20T09:59:10;30.50;99.90
35541;DHT22;21650;48.840;9.162;2023-08-20T10:01:36;30.30;99.90
35541;DHT22;21650;48.840;9.162;2023-08-20T10:04:02;30.30;99.90
35541;DHT22;21650;48.840;9.162;2023-08-20T10:06:29;30.60;99.90
35541;DHT22;21650;48.840;9.162;2023-08-20T10:08:56;30.70;99.90
35541;DHT22;21650;48.840;9.162;2023-08-20T10:11:23;30.70;99.90
35541;DHT22;21650;48.840;9.162;2023-08-20T10:13:49;30.70;99.90
35541;DHT22;21650;48.840;9.162;2023-08-20T10:16:17;31.00;99.90
35541;DHT22;21650;48.840;9.162;2023-08-20T10:18:46;30.70;99.90
35541;DHT22;21650;48.840;9.162;2023-08-20T10:21:13;30.80;99.90
35541;DHT22;21650;48.840;9.162;2023-08-20T10:23:40;30.90;99.90
35541;DHT22;21650;48.840;9.162;2023-08-20T10:26:11;30.90;99.90
35541;DHT22;21650;48.840;9.162;2023-08-20T10:28:37;30.80;99.90
35541;DHT22;21650;48.840;9.162;2023-08-20T10:31:04;30.80;99.90
35541;DHT22;21650;48.840;9.162;2023-08-20T10:33:33;30.80;99.90
35541;DHT22;21650;48.840;9.162;2023-08-20T10:36:13;30.90;99.90
35541;DHT22;21650;48.840;9.162;2023-08-20T10:38:40;31.10;99.90
35541;DHT22;21650;48.840;9.162;2023-08-20T10:41:07;31.20;99.90
35541;DHT22;21650;48.840;9.162;2023-08-20T10:46:06;31.30;99.90
35541;DHT22;21650;48.840;9.162;2023-08-20T10:48:33;30.90;99.90
35541;DHT22;21650;48.840;9.162;2023-08-20T10:51:12;30.70;99.90
35541;DHT22;21650;48.840;9.162;2023-08-20T10:53:40;30.70;99.90
35541;DHT22;21650;48.840;9.162;2023-08-20T10:56:16;30.70;99.90
35541;DHT22;21650;48.840;9.162;2023-08-20T10:58:44;30.70;99.90
35541;DHT22;21650;48.840;9.162;2023-08-20T11:01:14;30.90;99.90
35541;DHT22;21650;48.840;9.162;2023-08-20T11:03:47;30.90;99.90
35541;DHT22;21650;48.840;9.162;2023-08-20T11:06:14;30.90;99.90
35541;DHT22;21650;48.840;9.162;2023-08-20T11:08:41;31.00;99.90
35541;DHT22;21650;48.840;9.162;2023-08-20T11:11:07;31.10;99.90
35541;DHT22;21650;48.840;9.162;2023-08-20T11:13:33;31.30;99.90
35541;DHT22;21650;48.840;9.162;2023-08-20T11:16:02;31.20;99.90
35541;DHT22;21650;48.840;9.162;2023-08-20T11:18:27;31.30;99.90
35541;DHT22;21650;48.840;9.162;2023-08-20T11:20:54;31.30;99.90
35541;DHT22;21650;48.840;9.162;2023-08-20T11:23:21;31.30;99.90
35541;DHT22;21650;48.840;9.162;2023-08-20T11:25:47;31.60;99.90
35541;DHT22;21650;48.840;9.162;2023-08-20T11:28:13;31.90;99.90
35541;DHT22;21650;48.840;9.162;2023-08-20T11:30:39;31.80;99.90
35541;DHT22;21650;48.840;9.162;2023-08-20T11:33:04;31.80;99.90
35541;DHT22;21650;48.840;9.162;2023-08-20T11:35:31;32.10;99.90
35541;DHT22;21650;48.840;9.162;2023-08-20T11:37:58;32.10;99.90
35541;DHT22;21650;48.840;9.162;2023-08-20T11:40:24;31.80;99.90
35541;DHT22;21650;48.840;9.162;2023-08-20T11:42:49;31.90;99.90
35541;DHT22;21650;48.840;9.162;2023-08-20T11:45:15;31.70;99.90
35541;DHT22;21650;48.840;9.162;2023-08-20T11:47:41;31.50;99.90
35541;DHT22;21650;48.840;9.162;2023-08-20T11:50:08;31.60;99.90
35541;DHT22;21650;48.840;9.162;2023-08-20T11:52:35;31.60;99.90
35541;DHT22;21650;48.840;9.162;2023-08-20T11:55:01;31.50;99.90
35541;DHT22;21650;48.840;9.162;2023-08-20T11:57:29;31.50;99.90
35541;DHT22;21650;48.840;9.162;2023-08-20T11:59:55;31.50;99.90
35541;DHT22;21650;48.840;9.162;2023-08-20T12:02:25;31.50;99.90
35541;DHT22;21650;48.840;9.162;2023-08-20T12:04:51;31.80;99.90
35541;DHT22;21650;48.840;9.162;2023-08-20T12:07:17;31.70;99.90
35541;DHT22;21650;48.840;9.162;2023-08-20T12:09:42;31.80;99.90
35541;DHT22;21650;48.840;9.162;2023-08-20T12:12:09;31.90;99.90
35541;DHT22;21650;48.840;9.162;2023-08-20T12:14:35;31.80;99.90
35541;DHT22;21650;48.840;9.162;2023-08-20T12:17:01;31.90;99.90
35541;DHT22;21650;48.840;9.162;2023-08-20T12:19:28;31.90;99.90
35541;DHT22;21650;48.840;9.162;2023-08-20T12:21:54;32.10;99.90
35541;DHT22;21650;48.840;9.162;2023-08-20T12:24:20;32.10;99.90
35541;DHT22;21650;48.840;9.162;2023-08-20T12:26:46;31.60;99.90
35541;DHT22;21650;48.840;9.162;2023-08-20T12:29:11;31.60;99.90
35541;DHT22;21650;48.840;9.162;2023-08-20T12:31:38;31.70;99.90
35541;DHT22;21650;48.840;9.162;2023-08-20T12:34:03;31.80;99.90
35541;DHT22;21650;48.840;9.162;2023-08-20T12:36:29;31.70;99.90
35541;DHT22;21650;48.840;9.162;2023-08-20T12:38:55;31.60;99.90
35541;DHT22;21650;48.840;9.162;2023-08-20T12:41:21;31.80;99.90
35541;DHT22;21650;48.840;9.162;2023-08-20T12:43:47;32.10;99.90
35541;DHT22;21650;48.840;9.162;2023-08-20T12:46:13;32.00;99.90
35541;DHT22;21650;48.840;9.162;2023-08-20T12:48:39;32.20;99.90
35541;DHT22;21650;48.840;9.162;2023-08-20T12:51:05;32.30;99.90
35541;DHT22;21650;48.840;9.162;2023-08-20T12:53:31;32.10;99.70
35541;DHT22;21650;48.840;9.162;2023-08-20T12:55:56;32.00;99.90
35541;DHT22;21650;48.840;9.162;2023-08-20T12:58:22;32.00;99.60
35541;DHT22;21650;48.840;9.162;2023-08-20T13:00:49;32.20;99.80
35541;DHT22;21650;48.840;9.162;2023-08-20T13:03:15;32.40;99.90
35541;DHT22;21650;48.840;9.162;2023-08-20T13:05:41;32.50;99.20
35541;DHT22;21650;48.840;9.162;2023-08-20T13:08:07;32.50;99.90
35541;DHT22;21650;48.840;9.162;2023-08-20T13:10:33;32.70;99.90
35541;DHT22;21650;48.840;9.162;2023-08-20T13:13:01;32.90;99.90
35541;DHT22;21650;48.840;9.162;2023-08-20T13:15:27;33.10;99.90
35541;DHT22;21650;48.840;9.162;2023-08-20T13:17:53;32.80;99.90
35541;DHT22;21650;48.840;9.162;2023-08-20T13:20:19;32.80;99.90
35541;DHT22;21650;48.840;9.162;2023-08-20T13:22:50;32.80;99.90
35541;DHT22;21650;48.840;9.162;2023-08-20T13:25:17;32.80;99.90
35541;DHT22;21650;48.840;9.162;2023-08-20T13:27:42;32.60;99.90
35541;DHT22;21650;48.840;9.162;2023-08-20T13:30:08;32.60;99.90
35541;DHT22;21650;48.840;9.162;2023-08-20T13:32:35;32.70;99.90
35541;DHT22;21650;48.840;9.162;2023-08-20T13:35:01;32.90;99.90
35541;DHT22;21650;48.840;9.162;2023-08-20T13:37:28;33.10;99.90
35541;DHT22;21650;48.840;9.162;2023-08-20T13:39:54;33.30;99.90
35541;DHT22;21650;48.840;9.162;2023-08-20T13:42:20;33.10;99.90
35541;DHT22;21650;48.840;9.162;2023-08-20T13:44:45;33.10;99.90
35541;DHT22;21650;48.840;9.162;2023-08-20T13:47:11;33.20;99.90
35541;DHT22;21650;48.840;9.162;2023-08-20T13:49:36;33.20;99.90
35541;DHT22;21650;48.840;9.162;2023-08-20T13:52:02;33.10;99.90
35541;DHT22;21650;48.840;9.162;2023-08-20T13:54:28;32.90;99.90
35541;DHT22;21650;48.840;9.162;2023-08-20T13:56:53;32.70;99.90
35541;DHT22;21650;48.840;9.162;2023-08-20T13:59:19;32.60;99.90
35541;DHT22;21650;48.840;9.162;2023-08-20T14:01:44;33.00;99.90
35541;DHT22;21650;48.840;9.162;2023-08-20T14:04:10;33.00;99.90
35541;DHT22;21650;48.840;9.162;2023-08-20T14:06:36;33.10;99.90
35541;DHT22;21650;48.840;9.162;2023-08-20T14:09:01;33.10;99.90
35541;DHT22;21650;48.840;9.162;2023-08-20T14:11:30;33.30;99.90
35541;DHT22;21650;48.840;9.162;2023-08-20T14:13:55;33.50;99.90
35541;DHT22;21650;48.840;9.162;2023-08-20T14:16:21;33.60;99.90
35541;DHT22;21650;48.840;9.162;2023-08-20T14:18:47;33.50;99.20
35541;DHT22;21650;48.840;9.162;2023-08-20T14:21:12;33.40;99.90
35541;DHT22;21650;48.840;9.162;2023-08-20T14:23:38;33.40;98.50
35541;DHT22;21650;48.840;9.162;2023-08-20T14:26:06;33.30;99.30
35541;DHT22;21650;48.840;9.162;2023-08-20T14:28:32;33.10;98.70
35541;DHT22;21650;48.840;9.162;2023-08-20T14:31:02;33.40;99.20
35541;DHT22;21650;48.840;9.162;2023-08-20T14:33:29;33.40;99.10
35541;DHT22;21650;48.840;9.162;2023-08-20T14:35:54;33.40;98.60
35541;DHT22;21650;48.840;9.162;2023-08-20T14:38:20;33.40;98.80
35541;DHT22;21650;48.840;9.162;2023-08-20T14:40:45;33.40;98.20
35541;DHT22;21650;48.840;9.162;2023-08-20T14:43:11;33.30;98.10
35541;DHT22;21650;48.840;9.162;2023-08-20T14:45:36;33.70;98.50
35541;DHT22;21650;48.840;9.162;2023-08-20T14:48:02;33.80;97.30
35541;DHT22;21650;48.840;9.162;2023-08-20T14:50:28;33.90;98.40
35541;DHT22;21650;48.840;9.162;2023-08-20T14:52:54;34.10;96.80
35541;DHT22;21650;48.840;9.162;2023-08-20T14:55:20;33.60;97.60
35541;DHT22;21650;48.840;9.162;2023-08-20T14:57:45;33.40;97.00
35541;DHT22;21650;48.840;9.162;2023-08-20T15:00:12;33.60;97.10
35541;DHT22;21650;48.840;9.162;2023-08-20T15:02:43;33.40;97.60
35541;DHT22;21650;48.840;9.162;2023-08-20T15:05:10;32.90;96.90
35541;DHT22;21650;48.840;9.162;2023-08-20T15:07:36;32.60;97.50
35541;DHT22;21650;48.840;9.162;2023-08-20T15:10:05;32.40;97.10
35541;DHT22;21650;48.840;9.162;2023-08-20T15:12:36;32.10;97.20
35541;DHT22;21650;48.840;9.162;2023-08-20T15:15:04;32.20;98.00
35541;DHT22;21650;48.840;9.162;2023-08-20T15:17:30;32.20;98.00
35541;DHT22;21650;48.840;9.162;2023-08-20T15:22:26;32.50;97.90
35541;DHT22;21650;48.840;9.162;2023-08-20T15:24:52;32.70;97.90
35541;DHT22;21650;48.840;9.162;2023-08-20T15:27:18;33.10;97.60
35541;DHT22;21650;48.840;9.162;2023-08-20T15:29:44;32.90;97.00
35541;DHT22;21650;48.840;9.162;2023-08-20T15:32:10;32.60;97.30